Time;durP1;ratioP1;P1;durP2;ratioP2;P2;SDS_P1;SDS_P2;PMS_P1;PMS_P2;Temp;Humidity;BMP_temperature;BMP_pressure;BME280_temperature;BME280_humidity;BME280_pressure;Samples;Min_cycle;Max_cycle;Signal;HPM_P1;HPM_P2
2023/07/12 00:03:29;;;;;;;1.80;1.55;;;;;18.00;100504.00;;;;10105255;29;20207;-78
2023/07/12 00:08:32;;;;;;;4.45;1.70;;;;;18.00;100496.00;;;;10094989;29;20641;-77
2023/07/12 00:13:33;;;;;;;2.45;1.40;;;;;18.00;100504.00;;;;10110318;29;20741;-77
2023/07/12 00:18:34;;;;;;;2.03;1.40;;;;;18.10;100510.00;;;;10113000;29;20257;-77
2023/07/12 00:23:36;;;;;;;4.05;1.75;;;;;18.20;100508.00;;;;10120135;29;20223;-77
2023/07/12 00:28:37;;;;;;;4.88;1.45;;;;;18.20;100506.00;;;;10122962;29;20204;-76
2023/07/12 00:33:38;;;;;;;4.43;1.83;;;;;18.20;100539.00;;;;10108642;29;20299;-77
2023/07/12 00:38:40;;;;;;;4.88;1.75;;;;;18.20;100536.00;;;;10118289;29;20207;-77
2023/07/12 00:43:53;;;;;;;2.58;1.60;;;;;18.10;100555.00;;;;10106017;29;20211;-77
2023/07/12 00:48:54;;;;;;;1.70;1.13;;;;;17.80;100582.00;;;;10106491;29;20267;-77
2023/07/12 00:53:56;;;;;;;5.57;1.90;;;;;16.90;100558.00;;;;10119244;29;20310;-77
2023/07/12 00:59:04;;;;;;;3.58;1.50;;;;;16.50;100531.00;;;;10097602;29;20207;-77
2023/07/12 01:04:07;;;;;;;5.45;1.70;;;;;16.10;100522.00;;;;10105396;29;20267;-76
2023/07/12 01:09:13;;;;;;;4.47;1.95;;;;;16.00;100512.00;;;;10119088;29;20195;-76
2023/07/12 01:14:16;;;;;;;3.30;2.13;;;;;16.00;100509.00;;;;10119186;29;20314;-76
2023/07/12 01:19:18;;;;;;;3.92;1.80;;;;;16.00;100482.00;;;;10126253;29;20388;-77
2023/07/12 01:24:21;;;;;;;3.63;1.83;;;;;16.10;100477.00;;;;10109059;29;20729;-75
2023/07/12 01:29:24;;;;;;;6.80;2.38;;;;;16.10;100463.00;;;;10104699;29;20597;-76
2023/07/12 01:34:25;;;;;;;5.80;2.17;;;;;16.10;100454.00;;;;10110108;29;20310;-78
2023/07/12 01:39:28;;;;;;;2.92;1.50;;;;;16.10;100476.00;;;;10128263;29;20294;-75
2023/07/12 01:44:29;;;;;;;7.22;1.52;;;;;16.10;100499.00;;;;10093527;29;20501;-75
2023/07/12 01:49:30;;;;;;;6.95;2.05;;;;;16.00;100534.00;;;;10124217;29;20208;-76
2023/07/12 01:54:31;;;;;;;2.95;1.90;;;;;16.00;100561.00;;;;10093112;29;20227;-76
2023/07/12 01:59:33;;;;;;;3.72;1.65;;;;;16.00;100492.00;;;;10125657;29;20212;-76
2023/07/12 02:04:35;;;;;;;8.52;2.53;;;;;16.00;100504.00;;;;10119827;29;20199;-75
2023/07/12 02:09:40;;;;;;;4.55;2.03;;;;;16.00;100525.00;;;;10114835;29;20307;-75
2023/07/12 02:14:42;;;;;;;7.68;2.22;;;;;16.00;100527.00;;;;10120244;29;20275;-77
2023/07/12 02:19:44;;;;;;;6.13;2.07;;;;;16.00;100524.00;;;;10119225;29;20235;-76
2023/07/12 02:24:45;;;;;;;3.83;1.77;;;;;16.00;100518.00;;;;10105339;29;20200;-76
2023/07/12 02:29:46;;;;;;;9.67;2.47;;;;;16.00;100527.00;;;;10118605;29;20300;-77
2023/07/12 02:34:48;;;;;;;7.40;2.30;;;;;15.90;100529.00;;;;10110841;29;20656;-74
2023/07/12 02:39:49;;;;;;;6.13;2.33;;;;;15.90;100529.00;;;;10090387;29;20287;-74
2023/07/12 02:44:51;;;;;;;5.95;2.35;;;;;15.80;100533.00;;;;10109280;29;20279;-75
2023/07/12 02:49:52;;;;;;;5.57;2.50;;;;;15.80;100531.00;;;;10123437;29;20596;-74
2023/07/12 02:54:53;;;;;;;12.45;3.30;;;;;15.80;100533.00;;;;10108723;29;20540;-76
2023/07/12 02:59:54;;;;;;;3.65;2.45;;;;;15.80;100536.00;;;;10114993;29;20267;-75
2023/07/12 03:04:56;;;;;;;7.88;3.38;;;;;15.80;100535.00;;;;10112562;29;20570;-77
2023/07/12 03:09:58;;;;;;;8.95;4.28;;;;;15.80;100537.00;;;;10112745;29;20263;-77
2023/07/12 03:14:59;;;;;;;12.25;4.55;;;;;15.70;100539.00;;;;10096097;29;20220;-76
2023/07/12 03:20:00;;;;;;;8.85;4.65;;;;;15.70;100547.00;;;;10088606;29;20382;-76
2023/07/12 03:25:02;;;;;;;8.27;5.00;;;;;15.70;100550.00;;;;10069200;29;20208;-75
2023/07/12 03:30:04;;;;;;;8.82;4.53;;;;;15.60;100532.00;;;;10095885;29;20287;-76
2023/07/12 03:35:06;;;;;;;15.00;4.13;;;;;15.60;100536.00;;;;10089689;29;20227;-78
2023/07/12 03:40:07;;;;;;;7.85;4.68;;;;;15.40;100534.00;;;;10101940;29;20509;-76
2023/07/12 03:45:11;;;;;;;9.20;3.93;;;;;15.30;100526.00;;;;10097616;29;20235;-76
2023/07/12 03:50:12;;;;;;;11.93;4.67;;;;;15.30;100531.00;;;;10102657;29;20207;-77
2023/07/12 03:55:14;;;;;;;18.07;4.87;;;;;15.40;100539.00;;;;10101843;29;20277;-76
2023/07/12 04:00:15;;;;;;;12.87;6.03;;;;;15.50;100546.00;;;;10107855;29;20231;-77
2023/07/12 04:05:17;;;;;;;8.30;5.57;;;;;15.50;100560.00;;;;10106436;29;20204;-76
2023/07/12 04:10:18;;;;;;;10.83;5.67;;;;;15.70;100566.00;;;;10108920;29;20729;-77
2023/07/12 04:15:21;;;;;;;14.38;6.07;;;;;15.80;100571.00;;;;10108286;29;20750;-76
2023/07/12 04:20:22;;;;;;;11.65;5.28;;;;;15.80;100569.00;;;;10108999;29;20642;-76
2023/07/12 04:25:24;;;;;;;11.52;5.47;;;;;15.90;100569.00;;;;10101553;29;20282;-76
2023/07/12 04:30:25;;;;;;;10.32;5.80;;;;;15.90;100570.00;;;;10104598;29;20599;-77
2023/07/12 04:35:27;;;;;;;11.02;5.45;;;;;16.10;100575.00;;;;10106469;29;20306;-77
2023/07/12 04:40:28;;;;;;;16.48;5.25;;;;;16.10;100572.00;;;;10099470;29;20601;-76
2023/07/12 04:45:29;;;;;;;11.02;5.50;;;;;16.10;100589.00;;;;10110405;29;20234;-77
2023/07/12 04:50:33;;;;;;;11.15;5.85;;;;;16.10;100578.00;;;;10124578;29;20574;-76
2023/07/12 04:55:34;;;;;;;13.90;5.45;;;;;16.20;100590.00;;;;10099827;29;20220;-77
2023/07/12 05:00:36;;;;;;;11.95;5.97;;;;;16.30;100599.00;;;;10116704;29;20561;-77
2023/07/12 05:05:38;;;;;;;14.65;5.45;;;;;16.30;100603.00;;;;10111259;29;20203;-76
2023/07/12 05:10:39;;;;;;;16.70;5.65;;;;;16.40;100589.00;;;;10107546;29;20204;-76
2023/07/12 05:15:45;;;;;;;9.13;5.22;;;;;16.70;100591.00;;;;10109190;29;20350;-76
2023/07/12 05:20:48;;;;;;;10.05;5.97;;;;;16.90;100596.00;;;;10093907;29;20220;-77
2023/07/12 05:25:54;;;;;;;11.93;5.13;;;;;16.90;100593.00;;;;10105678;29;20299;-76
2023/07/12 05:30:55;;;;;;;15.68;6.18;;;;;16.80;100597.00;;;;10107400;29;20690;-77
2023/07/12 05:35:57;;;;;;;11.07;5.28;;;;;17.00;100614.00;;;;10101690;29;20478;-76
2023/07/12 05:40:59;;;;;;;12.48;5.65;;;;;16.90;100600.00;;;;10116139;29;20717;-76
2023/07/12 05:46:01;;;;;;;9.98;4.97;;;;;17.60;100601.00;;;;10093172;29;20615;-76
2023/07/12 05:51:04;;;;;;;12.88;4.50;;;;;18.70;100612.00;;;;10113360;29;20205;-75
2023/07/12 05:56:05;;;;;;;7.45;4.55;;;;;18.30;100621.00;;;;10096798;29;20216;-75
2023/07/12 06:01:06;;;;;;;8.40;4.47;;;;;17.80;100632.00;;;;10117317;29;20251;-76
2023/07/12 06:06:09;;;;;;;11.13;3.78;;;;;17.60;100625.00;;;;10109882;29;20238;-76
2023/07/12 06:11:11;;;;;;;7.93;3.40;;;;;17.70;100627.00;;;;10108117;29;20409;-75
2023/07/12 06:16:13;;;;;;;13.75;4.20;;;;;18.10;100624.00;;;;10109231;29;20422;-76
2023/07/12 06:21:15;;;;;;;10.90;4.22;;;;;18.00;100639.00;;;;10118402;29;20209;-77
2023/07/12 06:26:16;;;;;;;9.55;3.65;;;;;17.70;100652.00;;;;10107534;29;20682;-76
2023/07/12 06:31:17;;;;;;;9.93;4.30;;;;;18.20;100658.00;;;;10101167;29;20208;-75
2023/07/12 06:36:19;;;;;;;10.60;4.25;;;;;18.80;100657.00;;;;10118271;29;20278;-74
2023/07/12 06:41:20;;;;;;;10.88;3.65;;;;;19.20;100659.00;;;;10100133;29;20210;-76
2023/07/12 06:46:22;;;;;;;9.90;3.10;;;;;19.60;100658.00;;;;10110328;29;20204;-76
2023/07/12 06:51:23;;;;;;;11.15;3.28;;;;;19.80;100672.00;;;;10112283;29;20204;-75
2023/07/12 06:56:25;;;;;;;12.40;3.38;;;;;20.20;100673.00;;;;10106414;29;20230;-76
2023/07/12 07:01:26;;;;;;;9.48;3.00;;;;;21.50;100686.00;;;;10110884;29;20539;-77
2023/07/12 07:06:28;;;;;;;7.35;2.70;;;;;21.40;100674.00;;;;10135193;29;20469;-75
2023/07/12 07:11:29;;;;;;;6.82;2.30;;;;;21.40;100685.00;;;;10104179;29;20643;-77
2023/07/12 07:16:30;;;;;;;8.10;2.30;;;;;20.60;100686.00;;;;10107932;29;20506;-77
2023/07/12 07:21:32;;;;;;;9.95;2.80;;;;;20.30;100701.00;;;;10107388;29;20575;-76
2023/07/12 07:26:33;;;;;;;10.13;2.90;;;;;20.50;100710.00;;;;10107388;29;20215;-74
2023/07/12 07:31:35;;;;;;;10.93;2.83;;;;;20.50;100714.00;;;;10133529;29;20203;-74
2023/07/12 07:36:36;;;;;;;10.82;2.55;;;;;20.70;100725.00;;;;10133055;29;20665;-74
2023/07/12 07:41:37;;;;;;;8.27;2.92;;;;;21.20;100713.00;;;;10122769;29;20620;-73
2023/07/12 07:46:38;;;;;;;9.45;3.15;;;;;22.30;100719.00;;;;10132228;29;20215;-78
2023/07/12 07:51:40;;;;;;;10.07;3.05;;;;;23.40;100712.00;;;;10145994;29;20289;-75
2023/07/12 07:56:41;;;;;;;7.75;2.63;;;;;23.30;100713.00;;;;10113001;29;20232;-78
2023/07/12 08:01:43;;;;;;;7.70;2.90;;;;;23.70;100720.00;;;;10105716;29;20218;-75
2023/07/12 08:06:44;;;;;;;12.05;3.47;;;;;23.10;100722.00;;;;10123271;29;20211;-77
2023/07/12 08:11:45;;;;;;;6.60;2.75;;;;;23.70;100717.00;;;;10096715;29;20595;-78
2023/07/12 08:16:49;;;;;;;9.65;2.78;;;;;23.20;100734.00;;;;10108475;29;20211;-75
2023/07/12 08:21:51;;;;;;;6.70;2.58;;;;;22.50;100734.00;;;;10109148;29;20255;-76
2023/07/12 08:26:55;;;;;;;7.03;2.40;;;;;24.10;100733.00;;;;10111382;29;20226;-76
2023/07/12 08:32:10;;;;;;;10.52;2.85;;;;;26.00;100740.00;;;;10101866;29;20268;-76
2023/07/12 08:37:11;;;;;;;9.93;2.72;;;;;24.90;100742.00;;;;10115775;29;20207;-79
2023/07/12 08:42:42;;;;;;;7.38;2.20;;;;;24.10;100749.00;;;;10116995;29;20231;-77
2023/07/12 08:47:44;;;;;;;7.65;2.47;;;;;23.40;100757.00;;;;10109005;29;20625;-78
2023/07/12 08:52:46;;;;;;;3.67;2.03;;;;;24.60;100754.00;;;;10121293;29;20686;-77
2023/07/12 08:57:54;;;;;;;9.25;2.63;;;;;24.70;100746.00;;;;10107345;29;20211;-76
2023/07/12 09:02:55;;;;;;;7.45;2.15;;;;;25.30;100759.00;;;;10117080;29;20597;-77
2023/07/12 09:08:10;;;;;;;4.38;1.98;;;;;26.20;100754.00;;;;10109267;29;20565;-77
2023/07/12 09:13:13;;;;;;;8.75;2.45;;;;;26.60;100752.00;;;;10135694;29;20226;-78
2023/07/12 09:18:32;;;;;;;4.57;1.73;;;;;25.90;100742.00;;;;10133090;29;20211;-77
2023/07/12 09:23:39;;;;;;;6.68;2.47;;;;;25.80;100748.00;;;;10127824;29;20207;-77
2023/07/12 09:28:40;;;;;;;7.63;2.20;;;;;27.30;100744.00;;;;10122925;29;20211;-78
2023/07/12 09:33:50;;;;;;;9.82;2.30;;;;;26.50;100734.00;;;;10144045;29;20733;-75
2023/07/12 09:38:52;;;;;;;6.55;2.08;;;;;26.70;100724.00;;;;10126106;29;20701;-82
2023/07/12 09:43:56;;;;;;;8.18;2.00;;;;;28.70;100722.00;;;;10137638;29;20223;-75
2023/07/12 09:49:00;;;;;;;6.07;1.70;;;;;27.10;100727.00;;;;10139521;29;20282;-75
2023/07/12 09:54:42;;;;;;;6.32;1.83;;;;;25.20;100727.00;;;;10139302;29;20244;-74
2023/07/12 09:59:56;;;;;;;4.07;1.60;;;;;26.60;100745.00;;;;10138542;29;20617;-75
2023/07/12 10:05:17;;;;;;;7.07;1.35;;;;;26.10;100740.00;;;;10139948;29;20199;-76
2023/07/12 10:10:25;;;;;;;8.00;2.25;;;;;27.50;100733.00;;;;10138182;29;20231;-75
2023/07/12 10:15:30;;;;;;;5.40;1.90;;;;;26.60;100736.00;;;;10138336;29;20682;-75
2023/07/12 10:20:32;;;;;;;3.75;1.85;;;;;24.80;100720.00;;;;10138896;29;20558;-76
2023/07/12 10:25:37;;;;;;;6.70;1.65;;;;;25.80;100727.00;;;;10138930;29;20191;-76
2023/07/12 10:30:40;;;;;;;4.68;1.40;;;;;26.80;100732.00;;;;10151128;29;20210;-75
2023/07/12 10:35:49;;;;;;;5.80;1.40;;;;;27.50;100739.00;;;;10130488;29;20220;-76
2023/07/12 10:40:56;;;;;;;7.07;1.80;;;;;28.10;100733.00;;;;10113385;29;20290;-75
2023/07/12 10:46:30;;;;;;;4.95;2.03;;;;;28.70;100729.00;;;;10134330;29;20214;-76
2023/07/12 10:51:38;;;;;;;6.25;1.77;;;;;29.40;100730.00;;;;10132031;29;20207;-75
2023/07/12 10:56:54;;;;;;;4.03;1.20;;;;;30.40;100724.00;;;;10127625;29;20247;-78
2023/07/12 11:02:08;;;;;;;5.32;1.42;;;;;29.50;100737.00;;;;10121166;29;20263;-79
2023/07/12 11:07:15;;;;;;;5.72;1.63;;;;;27.40;100721.00;;;;10139038;29;20211;-77
2023/07/12 11:12:36;;;;;;;5.85;1.80;;;;;28.70;100732.00;;;;10106855;29;20255;-79
2023/07/12 11:18:13;;;;;;;4.50;1.50;;;;;29.50;100734.00;;;;10125354;29;20211;-75
2023/07/12 11:23:38;;;;;;;5.88;1.80;;;;;30.40;100737.00;;;;10134926;29;20211;-76
2023/07/12 11:28:42;;;;;;;5.35;1.98;;;;;30.90;100740.00;;;;10113706;29;20303;-77
2023/07/12 11:33:52;;;;;;;6.35;2.20;;;;;30.90;100736.00;;;;10131499;29;20720;-76
2023/07/12 11:38:55;;;;;;;4.32;1.60;;;;;31.00;100743.00;;;;10143421;29;20217;-77
2023/07/12 11:44:00;;;;;;;4.50;1.50;;;;;31.40;100738.00;;;;10148794;29;20294;-76
2023/07/12 11:49:10;;;;;;;2.00;1.02;;;;;32.00;100733.00;;;;10133147;29;20567;-75
2023/07/12 11:54:22;;;;;;;2.97;1.20;;;;;32.00;100726.00;;;;10126870;29;20274;-75
2023/07/12 11:59:25;;;;;;;4.20;1.30;;;;;30.60;100742.00;;;;10122428;29;20208;-75
2023/07/12 12:04:30;;;;;;;2.65;1.10;;;;;31.60;100736.00;;;;10129695;29;20204;-77
2023/07/12 12:09:36;;;;;;;4.85;1.40;;;;;30.90;100733.00;;;;10126020;29;20210;-78
2023/07/12 12:14:40;;;;;;;4.55;1.30;;;;;31.10;100727.00;;;;10125608;29;20621;-77
2023/07/12 12:19:47;;;;;;;5.10;1.60;;;;;30.70;100729.00;;;;10128874;29;20203;-77
2023/07/12 12:24:54;;;;;;;3.17;1.23;;;;;29.80;100734.00;;;;10128855;29;20211;-77
2023/07/12 12:30:03;;;;;;;5.82;1.42;;;;;28.70;100735.00;;;;10130694;29;20271;-77
2023/07/12 12:35:04;;;;;;;2.60;1.40;;;;;28.00;100732.00;;;;10130304;29;20251;-78
2023/07/12 12:40:20;;;;;;;5.20;1.10;;;;;26.90;100739.00;;;;10123859;29;20210;-76
2023/07/12 12:45:25;;;;;;;3.47;1.17;;;;;26.00;100728.00;;;;10127235;29;20286;-77
2023/07/12 12:50:27;;;;;;;6.78;1.83;;;;;26.80;100722.00;;;;10151094;29;20212;-75
2023/07/12 12:55:36;;;;;;;5.20;0.98;;;;;28.80;100733.00;;;;10112130;29;20306;-75
2023/07/12 13:00:57;;;;;;;3.15;1.02;;;;;26.90;100733.00;;;;10117753;29;20199;-77
2023/07/12 13:06:02;;;;;;;2.58;1.08;;;;;25.70;100733.00;;;;10137238;29;20239;-76
2023/07/12 13:11:05;;;;;;;2.70;0.90;;;;;25.00;100728.00;;;;10093915;29;20701;-74
2023/07/12 13:16:17;;;;;;;4.70;1.08;;;;;24.70;100732.00;;;;10104629;29;20587;-76
2023/07/12 13:21:24;;;;;;;2.65;1.00;;;;;24.60;100733.00;;;;10104131;29;20201;-77
2023/07/12 13:26:26;;;;;;;4.13;1.20;;;;;26.20;100723.00;;;;10178243;29;20233;-75
2023/07/12 13:31:27;;;;;;;2.83;0.80;;;;;28.50;100729.00;;;;10174503;29;20207;-77
2023/07/12 13:36:31;;;;;;;4.50;1.00;;;;;29.50;100747.00;;;;10141165;29;20220;-75
2023/07/12 13:41:33;;;;;;;4.97;1.25;;;;;28.20;100745.00;;;;10133081;29;20208;-78
2023/07/12 13:46:37;;;;;;;4.57;1.45;;;;;26.90;100740.00;;;;10119070;29;20299;-76
2023/07/12 13:51:39;;;;;;;2.75;1.10;;;;;27.90;100723.00;;;;10113540;29;20750;-76
2023/07/12 13:56:41;;;;;;;2.72;0.98;;;;;29.70;100736.00;;;;10137615;29;20275;-73
2023/07/12 14:01:46;;;;;;;4.68;1.30;;;;;30.50;100744.00;;;;10136341;29;20286;-75
2023/07/12 14:07:11;;;;;;;5.38;1.27;;;;;30.50;100748.00;;;;10116675;29;20208;-74
2023/07/12 14:12:17;;;;;;;2.35;0.90;;;;;30.30;100749.00;;;;10128863;29;20239;-76
2023/07/12 14:17:21;;;;;;;4.10;1.15;;;;;29.70;100760.00;;;;10137901;29;20219;-83
2023/07/12 14:22:28;;;;;;;5.00;1.30;;;;;28.30;100756.00;;;;10139431;29;20211;-83
2023/07/12 14:27:33;;;;;;;7.15;1.40;;;;;27.70;100755.00;;;;10139199;29;20231;-83
2023/07/12 14:32:36;;;;;;;2.55;1.02;;;;;27.00;100748.00;;;;10142696;29;20218;-78
2023/07/12 14:37:38;;;;;;;3.05;1.23;;;;;26.80;100758.00;;;;10120347;29;20286;-76
2023/07/12 14:42:39;;;;;;;4.55;1.20;;;;;26.50;100754.00;;;;10117850;29;20659;-75
2023/07/12 14:47:40;;;;;;;8.05;1.10;;;;;26.50;100749.00;;;;10123189;29;20211;-76
2023/07/12 14:52:42;;;;;;;3.85;1.25;;;;;26.70;100761.00;;;;10114929;29;20223;-76
2023/07/12 14:57:44;;;;;;;2.15;1.35;;;;;27.20;100764.00;;;;10123345;29;20220;-80
2023/07/12 15:02:53;;;;;;;2.85;1.00;;;;;26.60;100769.00;;;;10122382;29;20204;-74
2023/07/12 15:07:55;;;;;;;2.38;0.95;;;;;26.20;100759.00;;;;10098259;29;20256;-77
2023/07/12 15:13:02;;;;;;;5.78;1.15;;;;;26.90;100769.00;;;;10112800;29;20252;-77
2023/07/12 15:18:03;;;;;;;4.47;1.08;;;;;27.00;100757.00;;;;10168437;29;20307;-75
2023/07/12 15:23:12;;;;;;;1.33;0.75;;;;;27.50;100767.00;;;;10138105;29;20674;-75
2023/07/12 15:28:14;;;;;;;3.40;0.98;;;;;27.50;100761.00;;;;10135879;29;20218;-77
2023/07/12 15:33:21;;;;;;;4.63;1.00;;;;;27.20;100762.00;;;;10137438;29;20229;-82
2023/07/12 15:38:25;;;;;;;2.25;0.80;;;;;28.10;100751.00;;;;10131300;29;20214;-80
2023/07/12 15:43:32;;;;;;;5.70;0.93;;;;;27.10;100757.00;;;;10109375;29;20651;-75
2023/07/12 15:48:34;;;;;;;5.18;1.08;;;;;28.10;100750.00;;;;10097785;29;20252;-75
2023/07/12 15:53:36;;;;;;;3.53;1.05;;;;;27.00;100752.00;;;;10096039;29;20227;-74
2023/07/12 15:58:37;;;;;;;2.92;1.20;;;;;26.80;100762.00;;;;10104411;29;20215;-74
2023/07/12 16:03:38;;;;;;;2.95;1.27;;;;;25.70;100761.00;;;;10138531;29;20550;-78
2023/07/12 16:08:40;;;;;;;4.10;1.10;;;;;25.30;100753.00;;;;10156492;29;20760;-77
2023/07/12 16:13:41;;;;;;;9.60;1.40;;;;;25.70;100763.00;;;;10156445;29;20309;-75
2023/07/12 16:18:59;;;;;;;3.22;1.00;;;;;25.50;100758.00;;;;10120606;29;20580;-81
2023/07/12 16:24:01;;;;;;;3.08;0.90;;;;;25.40;100765.00;;;;10123505;29;20588;-78
2023/07/12 16:29:06;;;;;;;4.43;1.27;;;;;25.60;100768.00;;;;10139949;29;20231;-75
2023/07/12 16:34:26;;;;;;;1.73;0.90;;;;;25.60;100772.00;;;;10130108;29;20230;-75
2023/07/12 16:39:28;;;;;;;4.53;1.20;;;;;25.30;100770.00;;;;10132877;29;20207;-78
2023/07/12 16:44:29;;;;;;;4.10;1.10;;;;;25.00;100777.00;;;;10132330;29;20211;-76
2023/07/12 16:49:30;;;;;;;2.90;0.90;;;;;24.40;100774.00;;;;10101473;29;20202;-76
2023/07/12 16:54:33;;;;;;;3.53;1.10;;;;;24.30;100775.00;;;;10132679;29;20220;-75
2023/07/12 16:59:34;;;;;;;3.95;1.25;;;;;24.60;100782.00;;;;10140843;29;20203;-77
2023/07/12 17:04:35;;;;;;;4.63;1.13;;;;;24.30;100782.00;;;;10137028;29;20258;-75
2023/07/12 17:09:37;;;;;;;3.67;0.85;;;;;24.20;100782.00;;;;10126325;29;20195;-75
2023/07/12 17:14:38;;;;;;;3.03;0.98;;;;;23.80;100791.00;;;;10132009;29;20310;-78
2023/07/12 17:19:39;;;;;;;3.17;1.05;;;;;23.60;100794.00;;;;10095632;29;20204;-77
2023/07/12 17:24:43;;;;;;;3.53;1.40;;;;;23.30;100790.00;;;;10100220;29;20578;-79
2023/07/12 17:29:47;;;;;;;4.07;0.88;;;;;23.00;100791.00;;;;10123408;29;20250;-77
2023/07/12 17:34:48;;;;;;;4.75;1.55;;;;;22.90;100796.00;;;;10104362;29;20708;-76
2023/07/12 17:39:49;;;;;;;5.47;1.17;;;;;22.90;100799.00;;;;10109765;29;20210;-77
2023/07/12 17:45:18;;;;;;;3.75;1.52;;;;;22.70;100798.00;;;;10106954;29;20691;-77
2023/07/12 17:50:20;;;;;;;5.63;1.15;;;;;22.50;100805.00;;;;10118603;29;20219;-79
2023/07/12 17:55:21;;;;;;;6.18;1.30;;;;;22.30;100805.00;;;;10112617;29;20224;-77
2023/07/12 18:00:23;;;;;;;3.88;1.23;;;;;22.10;100804.00;;;;10108975;29;20880;-77
2023/07/12 18:05:27;;;;;;;4.85;1.27;;;;;21.90;100802.00;;;;10102060;29;20529;-76
2023/07/12 18:10:29;;;;;;;3.92;1.20;;;;;21.80;100811.00;;;;10114126;29;20245;-75
2023/07/12 18:15:30;;;;;;;2.88;0.98;;;;;21.70;100814.00;;;;10108046;29;20669;-76
2023/07/12 18:20:32;;;;;;;5.90;1.40;;;;;21.50;100829.00;;;;10116370;29;20207;-78
2023/07/12 18:25:38;;;;;;;3.10;1.20;;;;;21.40;100830.00;;;;10110048;29;20393;-77
2023/07/12 18:30:42;;;;;;;4.07;1.00;;;;;21.30;100826.00;;;;10109474;29;20439;-76
2023/07/12 18:35:46;;;;;;;3.40;1.08;;;;;21.00;100838.00;;;;10096787;29;20235;-76
2023/07/12 18:40:48;;;;;;;4.35;1.52;;;;;20.80;100836.00;;;;10079860;29;20208;-76
2023/07/12 18:45:51;;;;;;;3.65;1.15;;;;;20.60;100844.00;;;;10086942;29;20211;-77
2023/07/12 18:50:52;;;;;;;5.40;1.48;;;;;20.60;100843.00;;;;10111315;29;20198;-77
2023/07/12 18:55:53;;;;;;;5.28;0.90;;;;;20.50;100839.00;;;;10103644;29;20251;-78
2023/07/12 19:00:55;;;;;;;4.32;1.17;;;;;20.40;100852.00;;;;10113282;29;20957;-76
2023/07/12 19:05:56;;;;;;;3.40;0.95;;;;;20.20;100844.00;;;;10106906;29;20232;-77
2023/07/12 19:10:58;;;;;;;3.25;1.20;;;;;20.10;100849.00;;;;10114964;29;20246;-78
2023/07/12 19:15:59;;;;;;;3.50;1.00;;;;;20.00;100851.00;;;;10117851;29;20232;-78
2023/07/12 19:21:19;;;;;;;4.72;1.17;;;;;19.90;100854.00;;;;10113634;29;20295;-76
2023/07/12 19:26:26;;;;;;;3.97;1.38;;;;;19.80;100858.00;;;;10102484;29;20267;-78
2023/07/12 19:31:37;;;;;;;6.28;1.27;;;;;19.60;100861.00;;;;10106719;29;20208;-77
2023/07/12 19:36:38;;;;;;;3.20;1.05;;;;;19.40;100868.00;;;;10102096;29;20441;-79
2023/07/12 19:41:40;;;;;;;5.13;1.45;;;;;19.20;100870.00;;;;10105108;29;20207;-77
2023/07/12 19:46:42;;;;;;;4.32;1.25;;;;;19.10;100886.00;;;;10089780;29;20454;-76
2023/07/12 19:51:43;;;;;;;6.50;1.65;;;;;19.00;100884.00;;;;10115175;29;20227;-77
2023/07/12 19:56:45;;;;;;;3.92;1.73;;;;;18.90;100883.00;;;;10127615;29;20322;-76
2023/07/12 20:01:47;;;;;;;6.40;1.45;;;;;18.80;100888.00;;;;10106093;29;20203;-78
2023/07/12 20:06:51;;;;;;;5.30;1.50;;;;;18.70;100901.00;;;;10107229;29;20228;-77
2023/07/12 20:11:52;;;;;;;4.25;1.60;;;;;18.60;100904.00;;;;10106889;29;20209;-76
2023/07/12 20:16:54;;;;;;;6.43;1.50;;;;;18.50;100918.00;;;;10116540;29;20231;-78
2023/07/12 20:21:57;;;;;;;8.38;1.73;;;;;18.50;100909.00;;;;10105178;29;20247;-77
2023/07/12 20:26:58;;;;;;;3.35;1.48;;;;;18.40;100918.00;;;;10117580;29;20213;-77
2023/07/12 20:31:59;;;;;;;4.65;1.42;;;;;18.30;100918.00;;;;10119852;29;20206;-76
2023/07/12 20:37:05;;;;;;;8.25;1.45;;;;;18.20;100935.00;;;;10107958;29;20253;-79
2023/07/12 20:42:08;;;;;;;3.97;1.27;;;;;18.10;100924.00;;;;10086888;29;20287;-77
2023/07/12 20:47:09;;;;;;;6.55;1.42;;;;;18.10;100930.00;;;;10123944;29;20203;-76
2023/07/12 20:52:10;;;;;;;6.90;1.63;;;;;18.00;100927.00;;;;10137818;29;20262;-76
2023/07/12 20:57:12;;;;;;;6.45;1.48;;;;;17.90;100930.00;;;;10152893;29;20486;-79
2023/07/12 21:02:13;;;;;;;5.00;1.45;;;;;17.80;100921.00;;;;10179158;29;20202;-76
2023/07/12 21:07:15;;;;;;;5.90;1.33;;;;;17.70;100918.00;;;;10180075;29;20223;-75
2023/07/12 21:12:16;;;;;;;3.92;1.38;;;;;17.70;100923.00;;;;10180033;29;20223;-78
2023/07/12 21:17:18;;;;;;;2.38;1.10;;;;;17.70;100925.00;;;;10163424;29;20333;-75
2023/07/12 21:22:19;;;;;;;5.30;1.30;;;;;17.60;100934.00;;;;10155675;29;20211;-76
2023/07/12 21:27:22;;;;;;;6.65;1.40;;;;;17.50;100931.00;;;;10127091;29;20203;-75
2023/07/12 21:32:23;;;;;;;9.10;1.60;;;;;17.40;100941.00;;;;10141643;29;20574;-87
2023/07/12 21:37:25;;;;;;;3.70;1.20;;;;;17.40;100948.00;;;;10145544;29;20668;-77
2023/07/12 21:42:26;;;;;;;5.18;1.45;;;;;17.30;100950.00;;;;10139405;29;20211;-76
2023/07/12 21:47:28;;;;;;;4.82;1.52;;;;;17.20;100953.00;;;;10141032;29;20290;-75
2023/07/12 21:52:29;;;;;;;4.93;1.17;;;;;17.20;100954.00;;;;10139399;29;20211;-77
2023/07/12 21:57:31;;;;;;;4.32;1.33;;;;;17.20;100956.00;;;;10119660;29;20216;-77
2023/07/12 22:02:32;;;;;;;4.63;1.75;;;;;17.20;100970.00;;;;10130967;29;20216;-77
2023/07/12 22:07:33;;;;;;;4.90;1.55;;;;;17.10;100971.00;;;;10127286;29;20211;-75
2023/07/12 22:12:35;;;;;;;6.25;1.92;;;;;17.10;100966.00;;;;10139582;29;20298;-75
2023/07/12 22:17:36;;;;;;;6.63;1.50;;;;;17.00;100959.00;;;;10126817;29;20211;-77
2023/07/12 22:22:39;;;;;;;7.18;2.15;;;;;17.00;100971.00;;;;10136277;29;20658;-75
2023/07/12 22:27:41;;;;;;;6.60;1.88;;;;;16.90;100971.00;;;;10133238;29;20294;-78
2023/07/12 22:32:44;;;;;;;7.13;1.60;;;;;16.90;100982.00;;;;10136799;29;20686;-82
2023/07/12 22:37:45;;;;;;;5.75;1.65;;;;;16.80;100985.00;;;;10091188;29;20220;-83
2023/07/12 22:42:47;;;;;;;5.10;1.75;;;;;16.70;100976.00;;;;10127980;29;20211;-75
2023/07/12 22:47:48;;;;;;;4.95;1.48;;;;;16.70;100987.00;;;;10106672;29;20577;-75
2023/07/12 22:52:51;;;;;;;7.35;2.20;;;;;16.70;100986.00;;;;10141667;29;20758;-75
2023/07/12 22:57:52;;;;;;;7.13;1.80;;;;;16.70;100985.00;;;;10101151;29;20958;-75
2023/07/12 23:02:54;;;;;;;7.68;1.70;;;;;16.60;100987.00;;;;10152138;29;20209;-75
2023/07/12 23:07:55;;;;;;;7.75;2.20;;;;;16.60;100985.00;;;;10136305;29;20215;-78
2023/07/12 23:12:58;;;;;;;10.05;1.85;;;;;16.40;100988.00;;;;10128295;29;20219;-76
2023/07/12 23:18:00;;;;;;;6.10;1.77;;;;;16.40;100987.00;;;;10103917;29;20383;-76
2023/07/12 23:23:04;;;;;;;4.43;1.67;;;;;16.30;100980.00;;;;10104760;29;20864;-77
2023/07/12 23:28:07;;;;;;;5.50;1.50;;;;;16.30;100986.00;;;;10127458;29;20555;-76
2023/07/12 23:33:09;;;;;;;5.50;2.03;;;;;16.20;100981.00;;;;10120625;29;20203;-81
2023/07/12 23:38:10;;;;;;;4.53;1.83;;;;;16.20;100986.00;;;;10100881;29;20215;-81
2023/07/12 23:43:11;;;;;;;9.60;2.53;;;;;16.20;100980.00;;;;10105726;29;20199;-76
2023/07/12 23:48:14;;;;;;;7.03;1.85;;;;;16.10;100985.00;;;;10112829;29;20215;-78
2023/07/12 23:53:15;;;;;;;6.00;2.30;;;;;16.10;100982.00;;;;10113606;29;20536;-78
2023/07/12 23:58:18;;;;;;;6.80;2.25;;;;;16.00;100971.00;;;;10126951;29;20586;-78
